Harmony, West Virginia
Current Conditions -  °F | °C
As of 2:54 AM on Sunday 26 Oct 2014 (Local Time) from KCRW Reporting Station
Few Clouds Few Clouds  
Wind Chill: 56°   Ceiling: Unl
Heat Index: 56°   Visibility: 10mi
Dew Point: 53°   Wind: 5mph
Humidity: 90%   Direction: NA
Pressure: 29.89"   Gusts: NA
Location:  38.6926°N, 81.4812°W
Report Text: KCRW 260654Z VRB04KT 10SM FEW001 13/12 A2989 RMK AO2 SLP116 VLY FG T01330117 $
Loading
Personal Weather Stations






























Interactive Weather Map
Tropical Storm Tracking
New forecast layout! Learn more

10-Day Weather Forecast

Advertisements
Track Severe Weather on mobile